createdAt,value
2019-01-30T00:01:21.198Z,102065.00
2019-01-30T00:03:54.064Z,102068.00
2019-01-30T00:06:27.124Z,102067.00
2019-01-30T00:09:00.025Z,102070.00
2019-01-30T00:11:32.932Z,102068.00
2019-01-30T00:14:05.927Z,102070.00
2019-01-30T00:16:38.780Z,102081.00
2019-01-30T00:19:11.847Z,102090.00
2019-01-30T00:21:44.628Z,102077.00
2019-01-30T00:24:18.561Z,102073.00
2019-01-30T00:26:51.552Z,102061.00
2019-01-30T00:29:24.738Z,102074.00
2019-01-30T00:31:57.535Z,102067.00
2019-01-30T00:34:31.028Z,102066.00
2019-01-30T00:37:04.037Z,102061.00
2019-01-30T00:39:38.208Z,102061.00
2019-01-30T00:42:11.112Z,102067.00
2019-01-30T00:44:44.085Z,102063.00
2019-01-30T00:47:16.883Z,102063.00
2019-01-30T00:49:50.080Z,102059.00
2019-01-30T00:52:22.847Z,102058.00
2019-01-30T00:54:55.954Z,102063.00
2019-01-30T00:57:28.816Z,102056.00
2019-01-30T01:00:01.900Z,102044.00
2019-01-30T01:02:35.887Z,102058.00
2019-01-30T01:05:11.179Z,102056.00
2019-01-30T01:07:44.031Z,102057.00
2019-01-30T01:10:18.779Z,102057.00
2019-01-30T01:12:51.673Z,102044.00
2019-01-30T01:15:24.651Z,102041.00
2019-01-30T01:17:57.432Z,102039.00
2019-01-30T01:20:31.331Z,102047.00
2019-01-30T01:23:05.341Z,102047.00
2019-01-30T01:25:38.530Z,102052.00
2019-01-30T01:28:11.670Z,102049.00
2019-01-30T01:30:44.533Z,102051.00
2019-01-30T01:33:17.404Z,102035.00
2019-01-30T01:35:50.390Z,102046.00
2019-01-30T01:38:23.165Z,102039.00
2019-01-30T01:40:56.130Z,102039.00
2019-01-30T01:43:28.933Z,102035.00
2019-01-30T01:46:01.920Z,102041.00
2019-01-30T01:48:34.698Z,102036.00
2019-01-30T01:51:07.796Z,102022.00
2019-01-30T01:53:40.681Z,102013.00
2019-01-30T01:56:13.652Z,102024.00
2019-01-30T01:58:46.437Z,102017.00
2019-01-30T02:01:20.288Z,102029.00
2019-01-30T02:03:53.636Z,102013.00
2019-01-30T02:06:28.173Z,102009.00
2019-01-30T02:09:01.664Z,101998.00
2019-01-30T02:11:35.249Z,101991.00
2019-01-30T02:14:08.687Z,101994.00
2019-01-30T02:16:41.574Z,102003.00
2019-01-30T02:19:14.426Z,102002.00
2019-01-30T02:21:47.567Z,102012.00
2019-01-30T02:24:20.901Z,102021.00
2019-01-30T02:26:54.408Z,102017.00
2019-01-30T02:29:27.671Z,102013.00
2019-01-30T02:32:01.554Z,102015.00
2019-01-30T02:34:34.886Z,102018.00
2019-01-30T02:37:08.137Z,102018.00
2019-01-30T02:39:41.183Z,102017.00
2019-01-30T02:42:13.984Z,102006.00
2019-01-30T02:44:46.881Z,102004.00
2019-01-30T02:47:19.739Z,101996.00
2019-01-30T02:49:52.704Z,102002.00
2019-01-30T02:52:25.516Z,101995.00
2019-01-30T02:54:58.796Z,101996.00
2019-01-30T02:57:31.687Z,101991.00
2019-01-30T03:00:06.879Z,101977.00
2019-01-30T03:02:40.203Z,101982.00
2019-01-30T03:05:15.532Z,101987.00
2019-01-30T03:07:48.545Z,101983.00
2019-01-30T03:10:24.983Z,101976.00
2019-01-30T03:12:57.792Z,101983.00
2019-01-30T03:15:30.701Z,101982.00
2019-01-30T03:18:03.576Z,101986.00
2019-01-30T03:20:36.756Z,101983.00
2019-01-30T03:23:09.540Z,101978.00
2019-01-30T03:25:42.521Z,101973.00
2019-01-30T03:28:15.435Z,101971.00
2019-01-30T03:30:48.493Z,101974.00
2019-01-30T03:33:21.496Z,101972.00
2019-01-30T03:35:54.879Z,101985.00
2019-01-30T03:38:27.759Z,101973.00
2019-01-30T03:41:00.651Z,101972.00
2019-01-30T03:43:33.632Z,101965.00
2019-01-30T03:46:06.414Z,101960.00
2019-01-30T03:48:39.502Z,101968.00
2019-01-30T03:51:12.516Z,101961.00
2019-01-30T03:53:45.572Z,101964.00
2019-01-30T03:56:18.358Z,101966.00
2019-01-30T03:58:53.507Z,101966.00
2019-01-30T04:01:26.926Z,101971.00
2019-01-30T04:04:00.110Z,101964.00
2019-01-30T04:06:32.855Z,101960.00
2019-01-30T04:09:06.347Z,101972.00
2019-01-30T04:11:39.153Z,101972.00
2019-01-30T04:14:12.187Z,101968.00
2019-01-30T04:16:45.061Z,101969.00
2019-01-30T04:19:18.102Z,101966.00
2019-01-30T04:21:50.906Z,101966.00
2019-01-30T04:24:24.088Z,101966.00
2019-01-30T04:26:56.874Z,101969.00
2019-01-30T04:29:31.441Z,101968.00
2019-01-30T04:32:04.155Z,101967.00
2019-01-30T04:34:37.257Z,101962.00
2019-01-30T04:37:10.040Z,101953.00
2019-01-30T04:39:43.020Z,101956.00
2019-01-30T04:42:15.818Z,101949.00
2019-01-30T04:44:48.786Z,101943.00
2019-01-30T04:47:21.444Z,101946.00
2019-01-30T04:49:54.554Z,101953.00
2019-01-30T05:14:01.436Z,101943.00
2019-01-30T05:16:33.618Z,101931.00
2019-01-30T05:19:06.598Z,101930.00
2019-01-30T05:21:39.352Z,101937.00
2019-01-30T05:24:12.433Z,101933.00
2019-01-30T05:26:45.320Z,101936.00
2019-01-30T05:29:18.284Z,101934.00
2019-01-30T05:32:00.835Z,101933.00
2019-01-30T05:34:25.296Z,101932.00
2019-01-30T05:36:58.084Z,101939.00
2019-01-30T05:39:30.877Z,101944.00
2019-01-30T05:42:03.547Z,101937.00
2019-01-30T05:44:36.740Z,101937.00
2019-01-30T05:47:09.647Z,101946.00
2019-01-30T05:49:42.607Z,101937.00
2019-01-30T05:52:15.904Z,101941.00
2019-01-30T05:54:49.171Z,101945.00
2019-01-30T05:57:21.976Z,101953.00
2019-01-30T05:59:54.951Z,101955.00
2019-01-30T06:02:27.734Z,101958.00
2019-01-30T06:05:00.699Z,101958.00
2019-01-30T06:07:33.735Z,101960.00
2019-01-30T06:10:07.930Z,101968.00
2019-01-30T06:12:41.440Z,101965.00
2019-01-30T06:15:21.690Z,101976.00
2019-01-30T06:17:54.470Z,101972.00
2019-01-30T06:20:33.059Z,101975.00
2019-01-30T06:23:05.856Z,101975.00
2019-01-30T06:25:39.066Z,101972.00
2019-01-30T06:28:12.050Z,101962.00
2019-01-30T06:30:45.597Z,101973.00
2019-01-30T06:33:18.331Z,101972.00
2019-01-30T06:35:51.567Z,101972.00
2019-01-30T06:38:24.505Z,101974.00
2019-01-30T06:40:57.160Z,101983.00
2019-01-30T06:43:30.274Z,101983.00
2019-01-30T06:46:03.108Z,101987.00
2019-01-30T06:48:36.257Z,101988.00
2019-01-30T06:51:09.039Z,101986.00
2019-01-30T06:53:42.009Z,101993.00
2019-01-30T06:56:14.810Z,101993.00
2019-01-30T06:58:47.807Z,101998.00
2019-01-30T07:01:20.982Z,101999.00
2019-01-30T07:03:53.939Z,102005.00
2019-01-30T07:06:26.735Z,101998.00
2019-01-30T07:09:00.234Z,101998.00
2019-01-30T07:11:33.174Z,102005.00
2019-01-30T07:14:06.192Z,102007.00
2019-01-30T07:16:39.094Z,102011.00
2019-01-30T07:19:12.080Z,102012.00
2019-01-30T07:21:44.983Z,102008.00
2019-01-30T07:24:18.176Z,102014.00
2019-01-30T07:26:51.019Z,102015.00
2019-01-30T07:29:23.955Z,102011.00
2019-01-30T07:31:56.923Z,102011.00
2019-01-30T07:34:29.684Z,102010.00
2019-01-30T07:37:02.799Z,102007.00
2019-01-30T07:39:35.783Z,102005.00
2019-01-30T07:42:08.807Z,102004.00
2019-01-30T07:44:50.273Z,102009.00
2019-01-30T07:47:16.212Z,101997.00
2019-01-30T07:49:49.612Z,102001.00
2019-01-30T07:52:22.538Z,102007.00
2019-01-30T07:54:56.822Z,102009.00
2019-01-30T07:57:29.862Z,102000.00
2019-01-30T08:00:02.609Z,102009.00
2019-01-30T08:02:35.563Z,102015.00
2019-01-30T08:05:09.851Z,102016.00
2019-01-30T08:07:42.897Z,102015.00
2019-01-30T08:10:17.089Z,102022.00
2019-01-30T08:12:50.142Z,102013.00
2019-01-30T08:15:27.995Z,102010.00
2019-01-30T08:18:02.555Z,102019.00
2019-01-30T08:20:35.329Z,102019.00
2019-01-30T08:23:10.343Z,102020.00
2019-01-30T08:25:43.292Z,102027.00
2019-01-30T08:28:16.593Z,102027.00
2019-01-30T08:30:49.747Z,102035.00
2019-01-30T08:33:22.708Z,102037.00
2019-01-30T08:35:55.612Z,102045.00
2019-01-30T08:38:29.596Z,102033.00
2019-01-30T08:41:02.410Z,102042.00
2019-01-30T08:43:35.971Z,102038.00
2019-01-30T08:46:08.781Z,102045.00
2019-01-30T08:48:42.877Z,102049.00
2019-01-30T08:51:15.833Z,102050.00
2019-01-30T08:53:48.709Z,102051.00
2019-01-30T08:56:21.744Z,102061.00
2019-01-30T08:58:54.748Z,102061.00
2019-01-30T09:01:27.613Z,102066.00
2019-01-30T09:04:00.954Z,102062.00
2019-01-30T09:06:33.916Z,102062.00
2019-01-30T09:09:07.918Z,102065.00
2019-01-30T09:11:40.898Z,102053.00
2019-01-30T09:14:13.945Z,102052.00
2019-01-30T09:16:48.195Z,102054.00
2019-01-30T09:19:20.996Z,102058.00
2019-01-30T09:21:53.886Z,102062.00
2019-01-30T09:24:27.388Z,102063.00
2019-01-30T09:27:00.265Z,102051.00
2019-01-30T09:29:33.124Z,102056.00
2019-01-30T09:32:06.048Z,102066.00
2019-01-30T09:34:39.232Z,102067.00
2019-01-30T09:37:12.106Z,102063.00
2019-01-30T09:39:45.217Z,102059.00
2019-01-30T09:42:17.973Z,102069.00
2019-01-30T09:44:50.945Z,102059.00
2019-01-30T09:47:23.769Z,102055.00
2019-01-30T09:49:56.971Z,102066.00
2019-01-30T09:52:29.927Z,102056.00
2019-01-30T09:55:03.277Z,102059.00
2019-01-30T09:57:36.123Z,102069.00
2019-01-30T10:00:20.320Z,102060.00
2019-01-30T10:02:53.145Z,102063.00
2019-01-30T10:05:26.737Z,102064.00
2019-01-30T10:08:00.647Z,102066.00
2019-01-30T10:10:38.106Z,102058.00
2019-01-30T10:13:11.214Z,102066.00
2019-01-30T10:15:48.978Z,102062.00
2019-01-30T10:18:21.710Z,102062.00
2019-01-30T10:20:54.587Z,102071.00
2019-01-30T10:23:27.473Z,102063.00
2019-01-30T10:26:00.258Z,102062.00
2019-01-30T10:28:32.811Z,102066.00
2019-01-30T10:31:05.610Z,102062.00
2019-01-30T10:33:46.398Z,102067.00
2019-01-30T10:36:12.693Z,102073.00
2019-01-30T10:38:46.110Z,102064.00
2019-01-30T10:41:19.114Z,102065.00
2019-01-30T10:43:52.174Z,102065.00
2019-01-30T10:46:24.835Z,102070.00
2019-01-30T10:48:57.949Z,102061.00
2019-01-30T10:51:30.664Z,102073.00
2019-01-30T10:54:03.611Z,102077.00
2019-01-30T10:56:36.500Z,102077.00
2019-01-30T10:59:10.216Z,102078.00
2019-01-30T11:01:42.976Z,102072.00
2019-01-30T11:04:17.141Z,102085.00
2019-01-30T11:13:07.619Z,102081.00
2019-01-30T11:15:41.162Z,102088.00
2019-01-30T11:18:14.681Z,102079.00
2019-01-30T11:20:47.799Z,102085.00
2019-01-30T11:23:20.702Z,102084.00
2019-01-30T11:25:53.607Z,102086.00
2019-01-30T11:28:26.676Z,102075.00
2019-01-30T11:30:59.697Z,102078.00
2019-01-30T11:33:32.756Z,102076.00
2019-01-30T11:36:05.755Z,102076.00
2019-01-30T11:38:38.740Z,102071.00
2019-01-30T11:41:11.779Z,102064.00
2019-01-30T11:43:44.584Z,102078.00
2019-01-30T11:46:17.568Z,102062.00
2019-01-30T11:48:56.169Z,102063.00
2019-01-30T11:54:57.877Z,102059.00
2019-01-30T11:57:37.165Z,102056.00
2019-01-30T12:00:55.498Z,102055.00
2019-01-30T12:03:29.566Z,102051.00
2019-01-30T12:06:02.706Z,102048.00
2019-01-30T12:08:35.736Z,102049.00
2019-01-30T12:11:10.655Z,102052.00
2019-01-30T12:13:42.465Z,102047.00
2019-01-30T12:16:16.005Z,102049.00
2019-01-30T12:18:48.618Z,102040.00
2019-01-30T12:21:21.340Z,102040.00
2019-01-30T12:23:54.074Z,102037.00
2019-01-30T12:26:26.637Z,102036.00
2019-01-30T12:28:59.342Z,102029.00
2019-01-30T12:31:31.826Z,102025.00
2019-01-30T12:34:04.526Z,102023.00
2019-01-30T12:36:37.024Z,102018.00
2019-01-30T12:39:11.721Z,102012.00
2019-01-30T12:41:44.759Z,102011.00
2019-01-30T12:44:17.264Z,102012.00
2019-01-30T12:46:50.190Z,102009.00
2019-01-30T12:49:22.813Z,102003.00
2019-01-30T12:51:55.560Z,102002.00
2019-01-30T12:54:28.072Z,102001.00
2019-01-30T12:57:00.984Z,102010.00
2019-01-30T12:59:33.717Z,101996.00
2019-01-30T13:02:06.540Z,101998.00
2019-01-30T13:04:39.256Z,101995.00
2019-01-30T13:07:12.027Z,101992.00
2019-01-30T13:09:44.681Z,101988.00
2019-01-30T13:12:17.329Z,101986.00
2019-01-30T13:14:50.453Z,101981.00
2019-01-30T13:17:22.967Z,101989.00
2019-01-30T13:19:55.490Z,101976.00
2019-01-30T13:22:28.202Z,101977.00
2019-01-30T13:25:00.866Z,101972.00
2019-01-30T13:27:34.391Z,101968.00
2019-01-30T13:30:08.203Z,101969.00
2019-01-30T13:32:40.979Z,101959.00
2019-01-30T13:35:13.712Z,101963.00
2019-01-30T13:37:46.501Z,101965.00
2019-01-30T13:40:24.300Z,101964.00
2019-01-30T13:42:57.041Z,101964.00
2019-01-30T13:45:30.187Z,101955.00
2019-01-30T13:48:02.777Z,101949.00
2019-01-30T13:50:35.664Z,101954.00
2019-01-30T13:53:08.521Z,101957.00
2019-01-30T13:55:41.273Z,101948.00
2019-01-30T13:58:14.009Z,101943.00
2019-01-30T14:00:47.011Z,101940.00
2019-01-30T14:03:20.151Z,101945.00
2019-01-30T14:05:52.934Z,101940.00
2019-01-30T14:08:25.639Z,101944.00
2019-01-30T14:10:58.140Z,101941.00
2019-01-30T14:13:31.223Z,101942.00
2019-01-30T14:16:04.891Z,101942.00
2019-01-30T14:18:37.596Z,101940.00
2019-01-30T14:21:10.287Z,101941.00
2019-01-30T14:23:43.007Z,101936.00
2019-01-30T14:26:15.852Z,101935.00
2019-01-30T14:28:48.409Z,101941.00
2019-01-30T14:31:21.051Z,101943.00
2019-01-30T14:33:53.876Z,101951.00
2019-01-30T14:36:26.468Z,101942.00
2019-01-30T14:38:59.087Z,101933.00
2019-01-30T14:41:31.794Z,101934.00
2019-01-30T14:44:04.420Z,101936.00
2019-01-30T14:46:37.205Z,101929.00
2019-01-30T14:49:09.745Z,101928.00
2019-01-30T14:51:42.543Z,101926.00
2019-01-30T14:54:15.262Z,101926.00
2019-01-30T14:56:47.993Z,101925.00
2019-01-30T14:59:20.699Z,101917.00
2019-01-30T15:01:53.534Z,101915.00
2019-01-30T15:04:26.312Z,101910.00
2019-01-30T15:06:59.165Z,101908.00
2019-01-30T15:09:31.692Z,101911.00
2019-01-30T15:12:04.393Z,101911.00
2019-01-30T15:14:37.029Z,101902.00
2019-01-30T15:17:11.794Z,101903.00
2019-01-30T15:19:44.574Z,101900.00
2019-01-30T15:22:17.794Z,101898.00
2019-01-30T15:24:50.314Z,101900.00
2019-01-30T15:27:23.186Z,101900.00
2019-01-30T15:29:55.680Z,101897.00
2019-01-30T15:32:28.193Z,101897.00
2019-01-30T15:35:00.823Z,101891.00
2019-01-30T15:37:33.583Z,101889.00
2019-01-30T15:40:08.107Z,101889.00
2019-01-30T15:42:49.175Z,101886.00
2019-01-30T15:45:16.412Z,101892.00
2019-01-30T15:47:49.112Z,101883.00
2019-01-30T15:50:23.517Z,101880.00
2019-01-30T15:52:56.180Z,101877.00
2019-01-30T15:55:29.939Z,101884.00
2019-01-30T15:58:07.273Z,101879.00
2019-01-30T16:00:45.109Z,101879.00
2019-01-30T16:03:17.748Z,101876.00
2019-01-30T16:05:50.481Z,101877.00
2019-01-30T16:08:23.104Z,101886.00
2019-01-30T16:10:55.833Z,101877.00
2019-01-30T16:13:28.421Z,101881.00
2019-01-30T16:16:06.486Z,101876.00
2019-01-30T16:18:39.550Z,101882.00
2019-01-30T16:21:12.500Z,101885.00
2019-01-30T16:23:45.111Z,101885.00
2019-01-30T16:26:17.970Z,101874.00
2019-01-30T16:28:50.855Z,101870.00
2019-01-30T16:31:23.376Z,101864.00
2019-01-30T16:33:55.979Z,101873.00
2019-01-30T16:36:29.527Z,101872.00
2019-01-30T16:39:02.248Z,101870.00
2019-01-30T16:41:35.725Z,101870.00
2019-01-30T16:44:09.013Z,101864.00
2019-01-30T16:46:41.625Z,101881.00
2019-01-30T16:49:14.129Z,101876.00
2019-01-30T16:51:46.953Z,101877.00
2019-01-30T16:54:19.461Z,101872.00
2019-01-30T16:56:52.249Z,101877.00
2019-01-30T16:59:24.797Z,101877.00
2019-01-30T17:01:57.522Z,101882.00
2019-01-30T17:04:30.118Z,101884.00
2019-01-30T17:07:02.969Z,101877.00
2019-01-30T17:09:35.473Z,101884.00
2019-01-30T17:12:08.173Z,101889.00
2019-01-30T17:14:40.681Z,101879.00
2019-01-30T17:17:13.542Z,101890.00
2019-01-30T17:19:46.285Z,101889.00
2019-01-30T17:22:18.872Z,101895.00
2019-01-30T17:24:51.853Z,101894.00
2019-01-30T17:27:24.365Z,101895.00
2019-01-30T17:29:57.226Z,101905.00
2019-01-30T17:32:29.806Z,101907.00
2019-01-30T17:35:02.705Z,101902.00
2019-01-30T17:37:35.298Z,101900.00
2019-01-30T17:40:09.967Z,101909.00
2019-01-30T17:42:42.663Z,101907.00
2019-01-30T17:45:15.590Z,101898.00
2019-01-30T17:47:48.284Z,101891.00
2019-01-30T17:50:31.421Z,101887.00
2019-01-30T17:53:04.093Z,101891.00
2019-01-30T17:55:36.857Z,101889.00
2019-01-30T17:58:09.627Z,101887.00
2019-01-30T18:00:48.194Z,101889.00
2019-01-30T18:03:20.882Z,101888.00
2019-01-30T18:05:53.391Z,101893.00
2019-01-30T18:08:26.127Z,101894.00
2019-01-30T18:10:58.631Z,101900.00
2019-01-30T18:13:31.391Z,101907.00
2019-01-30T18:16:04.326Z,101899.00
2019-01-30T18:18:38.131Z,101905.00
2019-01-30T18:21:10.989Z,101900.00
2019-01-30T18:23:43.665Z,101915.00
2019-01-30T18:26:16.555Z,101916.00
2019-01-30T18:28:49.137Z,101920.00
2019-01-30T18:31:21.934Z,101921.00
2019-01-30T18:33:54.695Z,101925.00
2019-01-30T18:36:27.404Z,101927.00
2019-01-30T18:39:00.068Z,101926.00
2019-01-30T18:41:32.870Z,101929.00
2019-01-30T18:44:05.390Z,101919.00
2019-01-30T18:46:37.902Z,101924.00
2019-01-30T18:49:10.861Z,101926.00
2019-01-30T18:51:43.380Z,101923.00
2019-01-30T18:54:16.085Z,101924.00
2019-01-30T18:56:48.723Z,101925.00
2019-01-30T18:59:21.433Z,101921.00
2019-01-30T19:01:53.973Z,101926.00
2019-01-30T19:04:26.639Z,101935.00
2019-01-30T19:06:59.559Z,101931.00
2019-01-30T19:09:32.234Z,101935.00
2019-01-30T19:12:04.866Z,101937.00
2019-01-30T19:14:37.567Z,101941.00
2019-01-30T19:17:10.711Z,101944.00
2019-01-30T19:19:43.329Z,101946.00
2019-01-30T19:22:16.142Z,101940.00
2019-01-30T19:24:48.859Z,101948.00
2019-01-30T19:27:21.746Z,101951.00
2019-01-30T19:29:54.361Z,101952.00
2019-01-30T19:32:27.238Z,101948.00
2019-01-30T19:34:59.817Z,101953.00
2019-01-30T19:37:32.654Z,101958.00
2019-01-30T19:40:05.224Z,101950.00
2019-01-30T19:42:37.940Z,101947.00
2019-01-30T19:45:12.366Z,101949.00
2019-01-30T19:47:45.063Z,101958.00
2019-01-30T19:50:19.345Z,101951.00
2019-01-30T19:52:52.155Z,101949.00
2019-01-30T19:55:24.763Z,101951.00
2019-01-30T19:57:57.796Z,101958.00
2019-01-30T20:00:35.620Z,101959.00
2019-01-30T20:03:10.756Z,101961.00
2019-01-30T20:05:43.445Z,101958.00
2019-01-30T20:08:16.175Z,101957.00
2019-01-30T20:10:48.680Z,101953.00
2019-01-30T20:13:21.308Z,101956.00
2019-01-30T20:15:57.002Z,101962.00
2019-01-30T20:18:29.728Z,101958.00
2019-01-30T20:21:02.455Z,101953.00
2019-01-30T20:23:36.026Z,101962.00
2019-01-30T20:26:08.698Z,101957.00
2019-01-30T20:28:41.335Z,101973.00
2019-01-30T20:31:14.051Z,101963.00
2019-01-30T20:33:46.668Z,101959.00
2019-01-30T20:36:19.495Z,101953.00
2019-01-30T20:38:52.152Z,101959.00
2019-01-30T20:41:24.945Z,101962.00
2019-01-30T20:43:57.436Z,101952.00
2019-01-30T20:46:30.106Z,101958.00
2019-01-30T20:49:02.885Z,101951.00
2019-01-30T20:51:35.401Z,101952.00
2019-01-30T20:54:08.132Z,101947.00
2019-01-30T20:56:40.969Z,101951.00
2019-01-30T20:59:13.572Z,101960.00
2019-01-30T21:01:46.245Z,101953.00
2019-01-30T21:04:19.650Z,101957.00
2019-01-30T21:06:52.162Z,101957.00
2019-01-30T21:09:24.954Z,101954.00
2019-01-30T21:11:57.597Z,101957.00
2019-01-30T21:14:30.642Z,101952.00
2019-01-30T21:17:03.237Z,101948.00
2019-01-30T21:19:35.921Z,101948.00
2019-01-30T21:22:08.996Z,101942.00
2019-01-30T21:24:41.695Z,101949.00
2019-01-30T21:27:14.330Z,101947.00
2019-01-30T21:29:47.038Z,101934.00
2019-01-30T21:32:19.652Z,101943.00
2019-01-30T21:34:52.435Z,101925.00
2019-01-30T21:37:24.943Z,101923.00
2019-01-30T21:39:57.696Z,101933.00
2019-01-30T21:42:30.517Z,101929.00
2019-01-30T21:45:03.252Z,101929.00
2019-01-30T21:47:35.743Z,101925.00
2019-01-30T21:50:10.660Z,101932.00
2019-01-30T21:52:43.269Z,101924.00
2019-01-30T21:55:20.640Z,101922.00
2019-01-30T21:57:53.145Z,101923.00
2019-01-30T22:00:27.307Z,101920.00
2019-01-30T22:02:59.800Z,101919.00
2019-01-30T22:05:33.699Z,101925.00
2019-01-30T22:08:06.480Z,101915.00
2019-01-30T22:10:39.306Z,101909.00
2019-01-30T22:13:11.923Z,101915.00
2019-01-30T22:15:44.584Z,101925.00
2019-01-30T22:18:17.547Z,101915.00
2019-01-30T22:20:50.536Z,101922.00
2019-01-30T22:23:23.339Z,101909.00
2019-01-30T22:25:55.852Z,101916.00
2019-01-30T22:28:28.360Z,101915.00
2019-01-30T22:31:01.016Z,101908.00
2019-01-30T22:33:33.573Z,101908.00
2019-01-30T22:36:06.389Z,101905.00
2019-01-30T22:38:38.898Z,101899.00
2019-01-30T22:41:11.597Z,101900.00
2019-01-30T22:43:44.310Z,101898.00
2019-01-30T22:46:16.986Z,101887.00
2019-01-30T22:48:49.799Z,101899.00
2019-01-30T22:51:22.301Z,101888.00
2019-01-30T22:53:55.191Z,101887.00
2019-01-30T22:56:27.707Z,101876.00
2019-01-30T22:59:00.335Z,101873.00
2019-01-30T23:01:37.756Z,101865.00
2019-01-30T23:04:20.980Z,101864.00
2019-01-30T23:07:13.872Z,101858.00
2019-01-30T23:09:57.814Z,101861.00
2019-01-30T23:12:50.832Z,101854.00
2019-01-30T23:15:37.839Z,101860.00
2019-01-30T23:18:31.092Z,101859.00
2019-01-30T23:21:06.400Z,101847.00
2019-01-30T23:24:02.784Z,101849.00
2019-01-30T23:26:39.124Z,101861.00
2019-01-30T23:29:37.965Z,101857.00
2019-01-30T23:32:22.053Z,101847.00
2019-01-30T23:35:02.921Z,101853.00
2019-01-30T23:37:46.402Z,101853.00
2019-01-30T23:40:24.654Z,101843.00
2019-01-30T23:43:17.800Z,101850.00
2019-01-30T23:46:10.209Z,101842.00
2019-01-30T23:49:05.800Z,101840.00
2019-01-30T23:51:49.023Z,101834.00
2019-01-30T23:54:26.645Z,101830.00
2019-01-30T23:57:17.689Z,101844.00
